Main page
METAR-TAF:

METAR-TAF

Airports :

Djibouti–Ambouli International Airport

Djibouti, Djibouti

latitude: 11-33N, longitude: 043-10E, elevation: 49 m

Current weather observation

The report was made 2 hours and 47 minutes ago, at 20:00 UTC
Wind 5 kt from the Southwest
Temperature 35°C
Humidity 50%
Pressure 1005 hPa
Visibility: 8000 m
Clear sky
haze

METAR: HDAM 162000Z 22005KT 8000 HZ SKC 35/23 Q1005

Time: 01:47 (22:47 UTC)

Forecast

The report was made 5 hours and 47 minutes ago, at 17:00 UTC
Forecast valid from 16 at 18 UTC to 17 at 18 UTC
Wind 5 kt from variable directions
Visibility: 9000 m
Few clouds at a height of 13300 ft
haze
Becoming
from 17 at 00 UTC to 17 at 06 UTC
Wind kt from the North
Visibility: 8000 m
Few clouds at a height of 13300 ft
haze
Becoming
from 17 at 06 UTC to 17 at 12 UTC
Wind 10 kt from the East/Northeast
Visibility: 7000 m
Clear sky
haze

TAF: HDAM 161700Z 1618/1718 VRB05KT 9000 HZ FEW133 BECMG 1700/1706 00000KT 8000 HZ FEW133 BECMG 1706/1712 06010KT 7000 HZ SKC

Weather observations and forecasts of more than 4000 airports (METAR and TAF reports).

The available stations are represented by yellow and red dots on the map.

Hover mouse over dot to see the name of the station.

Then click to see weather observations and forecasts.

To change the map : click on the green buttons with a black cross to zoom in, on the green button with a dash to zoom out, or on the green arrows for adjacent maps.


METAR-TAF: